Aérodrome :
LOGIN :

S'inscrire | Disclaimer

   EN    FR    IT 

 










Légende :    VFR   VFR Marginal   IFR   IFR Intensif   IFR Très Intensif
Visi : 
Plafond : 
>= 8 km
>= 3000ft
5 à 8 km
1000 à 3000 ft
1500m à 5 km
500 à 1000 ft
800 à 1500m
200 à 500 ft
< 800m
< 200 ft
Symboles :   Orages  Brouillard  Fortes neiges  Fortes précipitations  Vent > 20 kt
SIGMETs :   Divers  Orages  Givrage  Turbulence  Onde Orograph.  Cendres Volcan.







- Altitude de l'aérodrome : 75 ft
- Code IATA : YEO


EGDY - RNAS Yeovilton

DERNIER METAR :
  • 251950Z 33005G20KT 5000 -SHRA FEW014 SCT025CB BKN040 04/02 Q1017 WHT TEMPO 4000 SHRA SCT014 BKN024CB GRN

METARs EXPIRÉS :
  • 251850Z 28004KT 9999 FEW025CB 04/02 Q1015 BLU TEMPO 5000 SHRA SCT024CB WHT
  • 251750Z 33012KT 2500 -SHRA FEW014 SCT030CB 05/02 Q1016 YLO1 BECMG 9999 FEW035 BKN045 BLU

TAF TAF EGDY
Valide du 25 à 15h jusqu'au 26 à 00h UTC


251404Z 2515/2524 35012KT 9999 SCT040
TEMPO 2515/2520 35015G25KT 6000 SHRA BKN030TCU
PROB40
TEMPO 2515/2520 4000 SHRAGS BKN030CB
Pas de NOTAMs connus pour ce terrain.



MET'MAP, la Météo Aéronautique d'un coup d'oeil ! - Copyright ORBIFLY Décembre 2007 - Disclaimer

ORBIFLY MET'MAP TEAM :

Programmation & Développement : Alexandra Zaïnal
Conception & Développement : Baudouin d'Aumeries
Co-Programmation & Développement : Marc-Olivier Méhu
Soutien technique & logistique : Manuel Goepfert

Contact : metmap@orbifly.com




SOURCES & CREDITS :

   NOAA